createdAt,value
2022-10-17T00:01:40.042Z,62.28
2022-10-17T00:04:10.438Z,62.77
2022-10-17T00:06:42.135Z,63.90
2022-10-17T00:09:12.781Z,63.57
2022-10-17T00:11:43.213Z,63.95
2022-10-17T00:14:13.957Z,64.40
2022-10-17T00:16:44.825Z,64.91
2022-10-17T00:19:15.173Z,64.92
2022-10-17T00:21:45.591Z,65.18
2022-10-17T00:24:15.890Z,65.75
2022-10-17T00:26:46.352Z,65.27
2022-10-17T00:29:17.145Z,64.93
2022-10-17T00:31:50.634Z,65.32
2022-10-17T00:34:21.107Z,65.66
2022-10-17T00:36:51.527Z,65.69
2022-10-17T00:39:21.929Z,65.23
2022-10-17T00:41:52.329Z,64.97
2022-10-17T00:44:32.461Z,64.71
2022-10-17T00:47:07.506Z,64.63
2022-10-17T00:49:40.124Z,65.10
2022-10-17T00:52:39.392Z,64.95
2022-10-17T00:55:27.147Z,64.29
2022-10-17T00:57:59.456Z,64.30
2022-10-17T01:00:30.412Z,64.61
2022-10-17T01:03:01.459Z,64.92
2022-10-17T01:05:32.080Z,64.21
2022-10-17T01:08:03.566Z,64.38
2022-10-17T01:10:51.308Z,64.09
2022-10-17T01:13:29.302Z,64.41
2022-10-17T01:16:38.169Z,64.67
2022-10-17T01:19:22.107Z,64.54
2022-10-17T01:22:03.367Z,64.76
2022-10-17T01:25:02.048Z,64.67
2022-10-17T01:27:56.437Z,64.90
2022-10-17T01:30:48.406Z,64.88
2022-10-17T01:33:45.052Z,64.83
2022-10-17T01:36:43.266Z,65.00
2022-10-17T01:39:23.704Z,64.87
2022-10-17T01:42:27.265Z,64.27
2022-10-17T01:45:08.754Z,64.61
2022-10-17T01:47:41.394Z,64.31
2022-10-17T01:50:21.166Z,64.57
2022-10-17T01:52:59.674Z,64.28
2022-10-17T01:55:43.293Z,64.57
2022-10-17T01:58:31.060Z,64.27
2022-10-17T02:01:08.199Z,64.34
2022-10-17T02:03:42.317Z,64.30
2022-10-17T02:06:12.984Z,64.27
2022-10-17T02:08:46.652Z,64.72
2022-10-17T02:11:27.671Z,64.51
2022-10-17T02:14:29.798Z,64.43
2022-10-17T02:17:11.320Z,64.53
2022-10-17T02:19:50.758Z,64.49
2022-10-17T02:22:32.888Z,64.54
2022-10-17T02:25:18.555Z,64.73
2022-10-17T02:28:24.317Z,64.68
2022-10-17T02:30:59.507Z,64.93
2022-10-17T02:33:39.046Z,64.79
2022-10-17T02:36:20.218Z,64.59
2022-10-17T02:38:53.177Z,64.22
2022-10-17T02:41:26.009Z,64.43
2022-10-17T02:43:58.846Z,64.64
2022-10-17T02:46:33.258Z,64.62
2022-10-17T02:49:15.721Z,64.17
2022-10-17T02:52:10.053Z,64.72
2022-10-17T02:54:50.327Z,63.96
2022-10-17T02:57:37.568Z,64.01
2022-10-17T03:00:11.156Z,63.87
2022-10-17T03:02:47.641Z,63.96
2022-10-17T03:05:21.955Z,63.59
2022-10-17T03:07:53.439Z,63.64
2022-10-17T03:10:24.275Z,63.39
2022-10-17T03:12:55.460Z,63.62
2022-10-17T03:15:26.866Z,63.60
2022-10-17T03:17:57.528Z,63.37
2022-10-17T03:20:28.254Z,63.18
2022-10-17T03:22:58.685Z,62.89
2022-10-17T03:25:30.686Z,63.31
2022-10-17T03:28:02.669Z,62.71
2022-10-17T03:30:33.784Z,62.81
2022-10-17T03:33:04.252Z,62.90
2022-10-17T03:35:34.660Z,62.43
2022-10-17T03:38:05.157Z,62.64
2022-10-17T03:40:35.744Z,62.24
2022-10-17T03:43:07.982Z,62.43
2022-10-17T03:45:38.377Z,62.37
2022-10-17T03:48:08.864Z,62.22
2022-10-17T03:50:39.561Z,61.85
2022-10-17T03:53:11.302Z,61.76
2022-10-17T03:55:42.302Z,61.75
2022-10-17T03:58:13.221Z,61.45
2022-10-17T04:00:43.696Z,61.80
2022-10-17T04:03:17.163Z,61.61
2022-10-17T04:05:48.012Z,61.58
2022-10-17T04:08:18.680Z,61.73
2022-10-17T04:11:20.734Z,61.63
2022-10-17T04:13:56.932Z,61.59
2022-10-17T04:16:29.574Z,61.25
2022-10-17T04:19:04.127Z,61.24
2022-10-17T04:21:40.689Z,61.28
2022-10-17T04:24:13.312Z,61.26
2022-10-17T04:26:52.249Z,61.32
2022-10-17T04:29:26.803Z,61.22
2022-10-17T04:32:05.169Z,60.97
2022-10-17T04:34:51.239Z,61.00
2022-10-17T04:37:24.987Z,60.96
2022-10-17T04:39:57.570Z,61.15
2022-10-17T04:42:30.282Z,60.74
2022-10-17T04:45:01.331Z,60.53
2022-10-17T04:47:31.881Z,60.79
2022-10-17T04:50:02.829Z,60.44
2022-10-17T04:52:40.430Z,60.38
2022-10-17T04:55:12.202Z,60.68
2022-10-17T04:57:43.921Z,60.48
2022-10-17T05:00:24.197Z,60.20
2022-10-17T05:03:17.389Z,60.46
2022-10-17T05:05:47.928Z,60.23
2022-10-17T05:08:18.363Z,60.25
2022-10-17T05:10:49.159Z,60.05
2022-10-17T05:13:20.147Z,60.33
2022-10-17T05:15:51.407Z,60.25
2022-10-17T05:18:21.907Z,60.15
2022-10-17T05:20:52.374Z,60.08
2022-10-17T05:23:23.493Z,60.20
2022-10-17T05:25:57.332Z,60.05
2022-10-17T05:28:28.614Z,59.98
2022-10-17T05:31:07.190Z,59.47
2022-10-17T05:33:38.732Z,59.72
2022-10-17T05:36:09.619Z,59.78
2022-10-17T05:38:40.084Z,59.44
2022-10-17T05:41:12.398Z,59.70
2022-10-17T05:43:42.894Z,59.59
2022-10-17T05:46:15.153Z,59.69
2022-10-17T05:48:45.570Z,59.75
2022-10-17T05:51:16.950Z,59.25
2022-10-17T05:53:47.400Z,59.62
2022-10-17T05:56:24.945Z,59.45
2022-10-17T05:59:00.691Z,59.33
2022-10-17T06:01:42.336Z,59.62
2022-10-17T06:04:13.011Z,59.11
2022-10-17T06:06:44.002Z,59.15
2022-10-17T06:09:15.262Z,59.05
2022-10-17T06:11:49.590Z,58.94
2022-10-17T06:14:20.412Z,59.12
2022-10-17T06:16:54.361Z,58.93
2022-10-17T06:19:25.825Z,58.89
2022-10-17T06:21:56.291Z,59.20
2022-10-17T06:24:29.032Z,59.07
2022-10-17T06:27:00.297Z,58.98
2022-10-17T06:29:30.858Z,58.68
2022-10-17T06:32:01.306Z,58.50
2022-10-17T06:34:38.270Z,58.88
2022-10-17T06:37:08.663Z,58.57
2022-10-17T06:39:40.628Z,58.61
2022-10-17T06:42:21.072Z,58.67
2022-10-17T06:45:30.200Z,58.48
2022-10-17T06:48:18.415Z,58.39
2022-10-17T06:51:13.205Z,58.31
2022-10-17T06:53:52.053Z,58.29
2022-10-17T06:56:49.632Z,58.33
2022-10-17T06:59:40.755Z,58.17
2022-10-17T07:02:24.708Z,58.17
2022-10-17T07:04:57.462Z,58.34
2022-10-17T07:07:28.192Z,58.11
2022-10-17T07:09:59.005Z,57.93
2022-10-17T07:12:29.768Z,58.11
2022-10-17T07:15:00.135Z,57.91
2022-10-17T07:17:30.784Z,57.54
2022-10-17T07:20:01.530Z,57.91
2022-10-17T07:22:35.356Z,57.84
2022-10-17T07:25:06.490Z,57.54
2022-10-17T07:27:43.100Z,57.58
2022-10-17T07:30:14.791Z,57.60
2022-10-17T07:32:56.721Z,57.56
2022-10-17T07:35:27.429Z,57.58
2022-10-17T07:37:58.655Z,57.37
2022-10-17T07:40:30.210Z,57.44
2022-10-17T07:43:03.531Z,57.51
2022-10-17T07:45:35.078Z,57.13
2022-10-17T07:48:06.836Z,57.27
2022-10-17T07:50:37.613Z,57.06
2022-10-17T07:53:08.366Z,56.89
2022-10-17T07:55:39.867Z,57.31
2022-10-17T07:58:12.286Z,57.15
2022-10-17T08:00:43.321Z,56.75
2022-10-17T08:03:14.627Z,56.80
2022-10-17T08:05:45.071Z,56.60
2022-10-17T08:08:15.539Z,56.63
2022-10-17T08:10:45.971Z,56.68
2022-10-17T08:13:16.389Z,56.56
2022-10-17T08:15:48.920Z,56.19
2022-10-17T08:18:19.788Z,56.42
2022-10-17T08:20:50.121Z,56.32
2022-10-17T08:23:20.505Z,56.08
2022-10-17T08:25:51.000Z,56.01
2022-10-17T08:28:21.665Z,56.15
2022-10-17T08:30:52.168Z,56.37
2022-10-17T08:33:22.753Z,56.01
2022-10-17T08:35:53.445Z,56.12
2022-10-17T08:38:27.809Z,56.23
2022-10-17T08:41:04.820Z,55.69
2022-10-17T08:44:01.334Z,55.98
2022-10-17T08:46:39.621Z,55.63
2022-10-17T08:49:37.054Z,55.80
2022-10-17T08:52:33.738Z,55.46
2022-10-17T08:55:04.611Z,55.71
2022-10-17T08:57:35.004Z,55.59
2022-10-17T09:00:14.724Z,55.62
2022-10-17T09:03:10.135Z,55.57
2022-10-17T09:06:11.225Z,55.27
2022-10-17T09:08:59.581Z,55.66
2022-10-17T09:12:00.562Z,55.45
2022-10-17T09:14:44.042Z,55.33
2022-10-17T09:17:27.901Z,55.41
2022-10-17T09:20:07.742Z,55.34
2022-10-17T09:23:06.557Z,55.08
2022-10-17T09:25:45.479Z,55.38
2022-10-17T09:28:36.302Z,55.38
2022-10-17T09:31:11.939Z,55.91
2022-10-17T09:34:00.974Z,55.34
2022-10-17T09:36:32.928Z,55.68
2022-10-17T09:39:16.186Z,55.46
2022-10-17T09:41:55.549Z,55.00
2022-10-17T09:45:06.153Z,55.55
2022-10-17T09:47:54.376Z,55.50
2022-10-17T09:50:31.705Z,55.29
2022-10-17T09:53:35.901Z,55.32
2022-10-17T09:56:14.363Z,55.58
2022-10-17T09:58:50.558Z,55.61
2022-10-17T10:01:24.904Z,55.61
2022-10-17T10:04:15.030Z,55.67
2022-10-17T10:07:08.479Z,55.75
2022-10-17T10:09:40.473Z,55.82
2022-10-17T10:12:23.037Z,55.65
2022-10-17T10:14:55.427Z,56.07
2022-10-17T10:17:36.200Z,55.75
2022-10-17T10:20:36.691Z,55.85
2022-10-17T10:23:19.502Z,55.93
2022-10-17T10:26:00.361Z,56.57
2022-10-17T10:28:36.768Z,56.07
2022-10-17T10:31:10.891Z,56.14
2022-10-17T10:33:48.145Z,56.09
2022-10-17T10:36:24.171Z,56.28
2022-10-17T10:39:01.251Z,59.88
2022-10-17T10:41:48.937Z,61.03
2022-10-17T10:44:25.633Z,61.99
2022-10-17T10:47:22.490Z,62.29
2022-10-17T10:50:07.647Z,62.76
2022-10-17T10:52:50.364Z,63.48
2022-10-17T10:55:26.519Z,63.63
2022-10-17T10:58:01.642Z,63.49
2022-10-17T11:00:36.459Z,64.45
2022-10-17T11:03:12.945Z,63.48
2022-10-17T11:05:52.589Z,64.55
2022-10-17T11:08:36.817Z,63.37
2022-10-17T11:11:18.979Z,63.04
2022-10-17T11:13:54.057Z,64.17
2022-10-17T11:16:38.829Z,62.84
2022-10-17T11:19:33.064Z,62.63
2022-10-17T11:22:18.700Z,62.98
2022-10-17T11:25:21.154Z,63.01
2022-10-17T11:27:51.325Z,64.68
2022-10-17T11:30:24.746Z,62.86
2022-10-17T11:33:01.591Z,63.45
2022-10-17T11:35:40.797Z,63.95
2022-10-17T11:38:17.176Z,64.19
2022-10-17T11:40:53.466Z,63.25
2022-10-17T11:43:29.402Z,64.27
2022-10-17T11:46:14.057Z,64.38
2022-10-17T11:49:07.841Z,64.06
2022-10-17T11:52:07.452Z,64.70
2022-10-17T11:54:47.210Z,64.52
2022-10-17T11:57:20.162Z,63.71
2022-10-17T12:00:08.332Z,64.05
2022-10-17T12:03:02.109Z,66.03
2022-10-17T12:06:08.081Z,67.55
2022-10-17T12:09:17.098Z,68.10
2022-10-17T12:11:54.836Z,68.42
2022-10-17T12:14:47.679Z,68.78
2022-10-17T12:17:35.947Z,69.23
2022-10-17T12:20:27.530Z,69.46
2022-10-17T12:23:07.531Z,69.53
2022-10-17T12:25:49.569Z,69.53
2022-10-17T12:28:52.368Z,69.62
2022-10-17T12:31:33.634Z,69.90
2022-10-17T12:34:07.138Z,70.04
2022-10-17T12:36:38.725Z,70.23
2022-10-17T12:39:12.768Z,70.22
2022-10-17T12:41:44.301Z,70.43
2022-10-17T12:44:22.663Z,70.21
2022-10-17T12:47:11.622Z,70.27
2022-10-17T12:49:56.467Z,70.75
2022-10-17T12:52:37.670Z,70.37
2022-10-17T12:55:14.383Z,70.71
2022-10-17T12:58:00.057Z,70.55
2022-10-17T13:00:59.409Z,70.56
2022-10-17T13:03:43.811Z,70.56
2022-10-17T13:06:23.531Z,70.43
2022-10-17T13:09:05.843Z,70.33
2022-10-17T13:11:40.065Z,70.42
2022-10-17T13:14:16.609Z,70.43
2022-10-17T13:17:26.716Z,70.81
2022-10-17T13:19:58.376Z,71.11
2022-10-17T13:22:38.423Z,70.60
2022-10-17T13:25:15.454Z,70.63
2022-10-17T13:27:46.482Z,70.85
2022-10-17T13:30:32.055Z,70.99
2022-10-17T13:33:03.991Z,71.20
2022-10-17T13:35:58.879Z,71.19
2022-10-17T13:38:31.067Z,71.42
2022-10-17T13:41:30.008Z,70.97
2022-10-17T13:43:56.052Z,71.29
2022-10-17T13:46:39.890Z,71.24
2022-10-17T13:49:38.637Z,71.72
2022-10-17T13:52:19.491Z,69.61
2022-10-17T13:54:52.388Z,68.11
2022-10-17T13:57:27.774Z,67.52
2022-10-17T14:00:15.008Z,66.31
2022-10-17T14:02:46.630Z,65.75
2022-10-17T14:05:21.133Z,65.07
2022-10-17T14:08:11.479Z,63.82
2022-10-17T14:10:45.675Z,64.56
2022-10-17T14:13:31.439Z,63.65
2022-10-17T14:16:04.312Z,62.62
2022-10-17T14:18:37.779Z,62.28
2022-10-17T14:24:22.516Z,61.34
2022-10-17T14:26:59.054Z,60.74
2022-10-17T14:29:55.101Z,59.41
2022-10-17T14:32:30.119Z,58.90
2022-10-17T14:35:37.029Z,58.69
2022-10-17T14:38:04.102Z,58.85
2022-10-17T14:40:36.259Z,58.05
2022-10-17T14:43:08.511Z,57.83
2022-10-17T14:45:40.988Z,58.85
2022-10-17T14:48:24.848Z,58.68
2022-10-17T14:51:18.336Z,58.71
2022-10-17T14:54:23.545Z,58.54
2022-10-17T14:56:55.927Z,58.51
2022-10-17T15:02:17.768Z,57.48
2022-10-17T15:04:48.656Z,56.69
2022-10-17T15:07:20.109Z,56.93
2022-10-17T15:09:51.322Z,57.26
2022-10-17T15:12:24.511Z,55.76
2022-10-17T15:14:55.468Z,55.30
2022-10-17T15:17:28.436Z,55.39
2022-10-17T15:19:59.968Z,55.19
2022-10-17T15:22:32.836Z,54.80
2022-10-17T15:25:03.492Z,54.08
2022-10-17T15:27:34.312Z,54.42
2022-10-17T15:30:05.965Z,53.83
2022-10-17T15:32:36.992Z,54.03
2022-10-17T15:35:08.262Z,53.42
2022-10-17T15:37:40.295Z,53.26
2022-10-17T15:40:25.835Z,53.47
2022-10-17T15:42:57.538Z,52.98
2022-10-17T15:45:28.105Z,53.21
2022-10-17T15:48:06.580Z,54.28
2022-10-17T15:50:36.987Z,54.05
2022-10-17T15:53:12.432Z,54.10
2022-10-17T15:55:43.115Z,53.61
2022-10-17T15:58:18.992Z,51.84
2022-10-17T16:00:50.242Z,53.02
2022-10-17T16:05:52.056Z,51.99
2022-10-17T16:08:22.466Z,51.99
2022-10-17T16:10:54.518Z,52.03
2022-10-17T16:13:26.161Z,51.07
2022-10-17T16:16:15.017Z,49.00
2022-10-17T16:19:07.150Z,50.67
2022-10-17T16:21:41.092Z,49.92
2022-10-17T16:24:13.199Z,50.56
2022-10-17T16:26:44.210Z,50.49
2022-10-17T16:29:14.778Z,50.34
2022-10-17T16:31:47.041Z,49.93
2022-10-17T16:34:17.967Z,50.15
2022-10-17T16:36:48.501Z,49.97
2022-10-17T16:39:19.255Z,49.61
2022-10-17T16:41:50.957Z,49.60
2022-10-17T16:44:22.325Z,49.82
2022-10-17T16:46:52.710Z,49.07
2022-10-17T16:49:23.012Z,49.03
2022-10-17T16:51:53.436Z,48.86
2022-10-17T16:54:23.805Z,48.89
2022-10-17T16:56:54.260Z,48.46
2022-10-17T16:59:25.311Z,48.82
2022-10-17T17:01:56.473Z,48.52
2022-10-17T17:04:27.434Z,48.56
2022-10-17T17:06:58.144Z,48.17
2022-10-17T17:09:29.039Z,48.40
2022-10-17T17:11:59.460Z,47.95
2022-10-17T17:14:29.910Z,48.10
2022-10-17T17:17:00.333Z,47.44
2022-10-17T17:19:30.747Z,47.25
2022-10-17T17:22:01.192Z,47.37
2022-10-17T17:24:31.480Z,47.37
2022-10-17T17:27:01.762Z,47.60
2022-10-17T17:29:32.184Z,46.99
2022-10-17T17:32:02.631Z,47.38
2022-10-17T17:34:38.211Z,46.08
2022-10-17T17:37:08.954Z,47.28
2022-10-17T17:39:39.381Z,47.42
2022-10-17T17:42:10.823Z,47.31
2022-10-17T17:44:41.311Z,47.10
2022-10-17T17:47:11.854Z,47.07
2022-10-17T17:49:42.667Z,47.10
2022-10-17T17:52:13.215Z,46.47
2022-10-17T17:54:43.560Z,46.57
2022-10-17T17:57:13.921Z,46.69
2022-10-17T17:59:44.262Z,46.33
2022-10-17T18:02:15.325Z,46.16
2022-10-17T18:04:45.729Z,46.26
2022-10-17T18:07:16.153Z,46.67
2022-10-17T18:09:46.470Z,46.88
2022-10-17T18:12:16.815Z,46.69
2022-10-17T18:14:47.260Z,46.28
2022-10-17T18:17:17.657Z,46.39
2022-10-17T18:19:48.342Z,46.49
2022-10-17T18:22:18.846Z,46.00
2022-10-17T18:24:49.192Z,46.24
2022-10-17T18:27:19.503Z,46.27
2022-10-17T18:29:49.890Z,46.36
2022-10-17T18:32:20.458Z,45.95
2022-10-17T18:34:50.807Z,46.24
2022-10-17T18:37:21.164Z,46.92
2022-10-17T18:39:53.723Z,46.58
2022-10-17T18:43:40.559Z,47.09
2022-10-17T18:46:46.885Z,46.72
2022-10-17T18:49:29.651Z,47.02
2022-10-17T18:52:24.383Z,46.92
2022-10-17T18:55:18.829Z,46.59
2022-10-17T18:59:11.294Z,45.60
2022-10-17T19:02:06.724Z,45.75
2022-10-17T19:13:15.907Z,45.99
2022-10-17T19:15:51.824Z,46.75
2022-10-17T19:18:22.145Z,46.58
2022-10-17T19:20:54.006Z,46.53
2022-10-17T19:23:24.443Z,46.24
2022-10-17T19:25:57.027Z,46.11
2022-10-17T19:28:34.371Z,46.17
2022-10-17T19:31:15.415Z,46.49
2022-10-17T19:33:50.666Z,46.34
2022-10-17T19:36:23.592Z,46.36
2022-10-17T19:38:56.235Z,46.48
2022-10-17T19:41:27.223Z,46.17
2022-10-17T19:43:58.611Z,46.43
2022-10-17T19:46:30.354Z,45.91
2022-10-17T19:49:01.168Z,46.41
2022-10-17T19:51:33.601Z,46.34
2022-10-17T19:54:06.089Z,46.23
2022-10-17T19:56:41.324Z,45.73
2022-10-17T19:59:32.979Z,45.86
2022-10-17T20:02:25.749Z,46.04
2022-10-17T20:05:19.204Z,45.63
2022-10-17T20:08:29.260Z,45.85
2022-10-17T20:11:20.167Z,45.31
2022-10-17T20:13:58.335Z,45.66
2022-10-17T20:16:32.387Z,45.56
2022-10-17T20:19:10.073Z,45.47
2022-10-17T20:21:40.999Z,45.50
2022-10-17T20:24:14.997Z,45.69
2022-10-17T20:26:46.055Z,45.63
2022-10-17T20:29:20.309Z,45.27
2022-10-17T20:31:51.196Z,45.47
2022-10-17T20:34:22.292Z,45.86
2022-10-17T20:37:18.749Z,45.32
2022-10-17T20:39:55.798Z,45.55
2022-10-17T20:42:35.654Z,46.05
2022-10-17T20:45:07.075Z,45.51
2022-10-17T20:47:47.003Z,45.48
2022-10-17T20:50:18.637Z,45.88
2022-10-17T20:52:53.329Z,45.35
2022-10-17T20:55:27.680Z,45.14
2022-10-17T20:57:58.263Z,45.72
2022-10-17T21:00:29.487Z,45.72
2022-10-17T21:03:03.417Z,45.05
2022-10-17T21:05:44.157Z,45.30
2022-10-17T21:08:51.559Z,44.76
2022-10-17T21:11:33.969Z,44.49
2022-10-17T21:14:13.648Z,44.86
2022-10-17T21:17:18.598Z,45.07
2022-10-17T21:20:45.963Z,44.31
2022-10-17T21:23:52.561Z,45.06
2022-10-17T21:26:39.598Z,44.18
2022-10-17T21:29:14.752Z,44.63
2022-10-17T21:31:46.742Z,44.07
2022-10-17T21:34:19.701Z,44.58
2022-10-17T21:36:51.041Z,44.22
2022-10-17T21:39:22.875Z,44.66
2022-10-17T21:41:54.086Z,44.41
2022-10-17T21:44:27.037Z,44.16
2022-10-17T21:46:57.512Z,44.86
2022-10-17T21:49:28.188Z,44.57
2022-10-17T21:51:59.343Z,44.76
2022-10-17T21:54:29.693Z,44.59
2022-10-17T21:57:00.236Z,44.25
2022-10-17T21:59:32.547Z,44.42
2022-10-17T22:02:03.414Z,44.82
2022-10-17T22:04:33.833Z,44.40
2022-10-17T22:07:04.167Z,44.85
2022-10-17T22:09:34.458Z,44.68
2022-10-17T22:12:04.794Z,44.76
2022-10-17T22:14:35.130Z,44.14
2022-10-17T22:17:05.505Z,44.36
2022-10-17T22:19:35.896Z,44.00
2022-10-17T22:22:06.210Z,44.19
2022-10-17T22:24:36.775Z,44.13
2022-10-17T22:27:07.293Z,43.75
2022-10-17T22:29:37.980Z,44.54
2022-10-17T22:32:08.362Z,43.88
2022-10-17T22:34:38.874Z,44.38
2022-10-17T22:37:09.285Z,43.87
2022-10-17T22:39:39.728Z,44.26
2022-10-17T22:42:10.172Z,43.80
2022-10-17T22:44:40.963Z,43.67
2022-10-17T22:47:11.353Z,44.34
2022-10-17T22:49:41.658Z,44.01
2022-10-17T22:52:12.224Z,43.76
2022-10-17T22:54:42.909Z,44.03
2022-10-17T22:57:14.495Z,43.82
2022-10-17T22:59:45.330Z,44.10
2022-10-17T23:02:16.097Z,44.45
2022-10-17T23:04:46.468Z,45.15
2022-10-17T23:07:16.789Z,45.93
2022-10-17T23:09:47.242Z,46.99
2022-10-17T23:12:18.623Z,47.80
2022-10-17T23:14:49.084Z,48.32
2022-10-17T23:17:19.476Z,47.90
2022-10-17T23:19:52.937Z,48.59
2022-10-17T23:22:26.393Z,49.35
2022-10-17T23:24:56.845Z,49.50
2022-10-17T23:27:27.300Z,49.51
2022-10-17T23:29:57.772Z,51.64
2022-10-17T23:32:28.529Z,56.53
2022-10-17T23:34:59.097Z,62.25
2022-10-17T23:37:29.760Z,62.80
2022-10-17T23:40:00.411Z,66.03
2022-10-17T23:42:30.793Z,67.38
2022-10-17T23:45:01.236Z,69.32
2022-10-17T23:47:32.159Z,69.69
2022-10-17T23:50:02.835Z,69.45
2022-10-17T23:52:33.363Z,70.83
2022-10-17T23:55:03.780Z,68.97
2022-10-17T23:57:34.440Z,69.82
